Terminal Aerodrome Forecast
Issued by NWS

Home | Current Version | Previous Version | Graphics & Text | Print | Product List | Glossary On
Versions: 1 2 3 4 5 6 7 8 9 10 11 12 13 14 15 16 17 18 19 20 21 22 23
679
FTUS43 KGRB 172336
TAFMTW
TAF
KMTW 172336Z 1800/1824 26014G22KT P6SM VCSH SCT030 BKN040
      TEMPO 1804/1808 SCT018 BKN030
     FM181500 30014G22KT P6SM SCT025 BKN040
     FM181900 29012G20KT P6SM SCT040=

USA.gov is the U.S. government's official web portal to all federal, state and local government web resources and services.